Terminal Aerodrome Forecast
Issued by NWS

Home | Current Version | Previous Version | Text Only | Print | Product List | Glossary Off
Versions: 1 2 3 4 5 6 7 8 9 10 11 12 13 14 15 16 17 18 19 20 21 22 23 24 25 26 27 28 29 30 31 32 33 34 35

000
FTUS43 KLOT 301600 AAB
TAFORD
TAF AMD
KORD 301601Z 3016/3118 32007KT P6SM FEW045
     FM301900 34008KT P6SM VCSH BKN045
     FM302100 06010KT P6SM VCSH SCT045
     FM310200 25005KT P6SM SCT060
     FM311400 26009KT P6SM SCT050=

USA.gov is the U.S. government's official web portal to all federal, state and local government web resources and services.